Preview of NWS' New Version of Forecast
This preview is not operational and should not be used for support decisions.

Terminal Aerodrome Forecast (TAF)

Issued by National Weather Service (NWS)

                            
000
FTUS42 KKEY 240932 AAA
TAFEYW
TAF AMD
KEYW 240932Z 2410/2506 05005KT P6SM SCT035
     FM241500 12010KT P6SM SCT035=